sensor_id;sensor_type;location;lat;lon;timestamp;P1;durP1;ratioP1;P2;durP2;ratioP2
3341;SDS011;1684;50.748;6.154;2022-10-16T00:01:49;2.40;;;1.57;;
3341;SDS011;1684;50.748;6.154;2022-10-16T00:04:18;3.03;;;1.80;;
3341;SDS011;1684;50.748;6.154;2022-10-16T00:06:46;3.00;;;1.77;;
3341;SDS011;1684;50.748;6.154;2022-10-16T00:09:15;5.03;;;1.50;;
3341;SDS011;1684;50.748;6.154;2022-10-16T00:11:44;3.97;;;1.33;;
3341;SDS011;1684;50.748;6.154;2022-10-16T00:14:14;3.07;;;1.43;;
3341;SDS011;1684;50.748;6.154;2022-10-16T00:16:42;3.20;;;1.27;;
3341;SDS011;1684;50.748;6.154;2022-10-16T00:19:13;3.23;;;1.70;;
3341;SDS011;1684;50.748;6.154;2022-10-16T00:21:41;2.30;;;1.27;;
3341;SDS011;1684;50.748;6.154;2022-10-16T00:24:09;3.13;;;1.43;;
3341;SDS011;1684;50.748;6.154;2022-10-16T00:26:39;2.07;;;1.10;;
3341;SDS011;1684;50.748;6.154;2022-10-16T00:29:08;3.27;;;1.50;;
3341;SDS011;1684;50.748;6.154;2022-10-16T00:31:36;2.47;;;1.50;;
3341;SDS011;1684;50.748;6.154;2022-10-16T00:34:04;2.10;;;1.47;;
3341;SDS011;1684;50.748;6.154;2022-10-16T00:36:32;6.87;;;1.57;;
3341;SDS011;1684;50.748;6.154;2022-10-16T00:39:01;2.50;;;1.73;;
3341;SDS011;1684;50.748;6.154;2022-10-16T00:41:31;3.53;;;2.03;;
3341;SDS011;1684;50.748;6.154;2022-10-16T00:44:01;2.90;;;1.47;;
3341;SDS011;1684;50.748;6.154;2022-10-16T00:46:31;2.70;;;1.30;;
3341;SDS011;1684;50.748;6.154;2022-10-16T00:49:03;4.63;;;1.43;;
3341;SDS011;1684;50.748;6.154;2022-10-16T00:51:32;2.43;;;1.47;;
3341;SDS011;1684;50.748;6.154;2022-10-16T00:54:01;2.70;;;1.50;;
3341;SDS011;1684;50.748;6.154;2022-10-16T00:56:30;2.27;;;1.07;;
3341;SDS011;1684;50.748;6.154;2022-10-16T00:58:58;2.13;;;1.20;;
3341;SDS011;1684;50.748;6.154;2022-10-16T01:01:28;2.70;;;1.60;;
3341;SDS011;1684;50.748;6.154;2022-10-16T01:03:57;4.87;;;2.00;;
3341;SDS011;1684;50.748;6.154;2022-10-16T01:06:27;2.13;;;1.23;;
3341;SDS011;1684;50.748;6.154;2022-10-16T01:09:02;2.80;;;1.40;;
3341;SDS011;1684;50.748;6.154;2022-10-16T01:11:32;2.40;;;1.20;;
3341;SDS011;1684;50.748;6.154;2022-10-16T01:14:02;2.60;;;1.27;;
3341;SDS011;1684;50.748;6.154;2022-10-16T01:16:37;2.67;;;1.33;;
3341;SDS011;1684;50.748;6.154;2022-10-16T01:19:09;2.43;;;1.20;;
3341;SDS011;1684;50.748;6.154;2022-10-16T01:21:40;2.20;;;1.30;;
3341;SDS011;1684;50.748;6.154;2022-10-16T01:24:09;5.27;;;1.37;;
3341;SDS011;1684;50.748;6.154;2022-10-16T01:26:47;2.53;;;1.50;;
3341;SDS011;1684;50.748;6.154;2022-10-16T01:29:20;2.70;;;0.93;;
3341;SDS011;1684;50.748;6.154;2022-10-16T01:31:50;4.10;;;1.77;;
3341;SDS011;1684;50.748;6.154;2022-10-16T01:34:22;19.73;;;3.47;;
3341;SDS011;1684;50.748;6.154;2022-10-16T01:36:53;2.50;;;1.00;;
3341;SDS011;1684;50.748;6.154;2022-10-16T01:39:24;3.00;;;1.20;;
3341;SDS011;1684;50.748;6.154;2022-10-16T01:41:54;2.40;;;1.17;;
3341;SDS011;1684;50.748;6.154;2022-10-16T01:44:24;6.90;;;1.20;;
3341;SDS011;1684;50.748;6.154;2022-10-16T01:46:54;1.93;;;0.87;;
3341;SDS011;1684;50.748;6.154;2022-10-16T01:49:23;1.73;;;0.70;;
3341;SDS011;1684;50.748;6.154;2022-10-16T01:51:54;2.67;;;1.50;;
3341;SDS011;1684;50.748;6.154;2022-10-16T01:54:24;2.27;;;1.00;;
3341;SDS011;1684;50.748;6.154;2022-10-16T01:56:53;2.07;;;1.00;;
3341;SDS011;1684;50.748;6.154;2022-10-16T01:59:23;2.00;;;1.10;;
3341;SDS011;1684;50.748;6.154;2022-10-16T02:01:55;3.13;;;1.10;;
3341;SDS011;1684;50.748;6.154;2022-10-16T02:04:26;2.10;;;1.20;;
3341;SDS011;1684;50.748;6.154;2022-10-16T02:06:56;2.33;;;1.17;;
3341;SDS011;1684;50.748;6.154;2022-10-16T02:09:24;2.20;;;1.17;;
3341;SDS011;1684;50.748;6.154;2022-10-16T02:11:53;3.07;;;1.30;;
3341;SDS011;1684;50.748;6.154;2022-10-16T02:14:22;2.37;;;1.40;;
3341;SDS011;1684;50.748;6.154;2022-10-16T02:16:51;3.97;;;1.87;;
3341;SDS011;1684;50.748;6.154;2022-10-16T02:19:21;3.43;;;1.57;;
3341;SDS011;1684;50.748;6.154;2022-10-16T02:21:50;6.93;;;1.50;;
3341;SDS011;1684;50.748;6.154;2022-10-16T02:24:21;3.43;;;1.73;;
3341;SDS011;1684;50.748;6.154;2022-10-16T02:26:52;4.70;;;1.70;;
3341;SDS011;1684;50.748;6.154;2022-10-16T02:29:22;2.63;;;1.67;;
3341;SDS011;1684;50.748;6.154;2022-10-16T02:31:52;2.60;;;1.50;;
3341;SDS011;1684;50.748;6.154;2022-10-16T02:34:22;2.90;;;1.80;;
3341;SDS011;1684;50.748;6.154;2022-10-16T02:36:52;3.30;;;2.13;;
3341;SDS011;1684;50.748;6.154;2022-10-16T02:39:21;3.40;;;1.73;;
3341;SDS011;1684;50.748;6.154;2022-10-16T02:41:49;4.10;;;1.97;;
3341;SDS011;1684;50.748;6.154;2022-10-16T02:44:17;2.67;;;1.70;;
3341;SDS011;1684;50.748;6.154;2022-10-16T02:46:45;3.17;;;1.77;;
3341;SDS011;1684;50.748;6.154;2022-10-16T02:49:13;3.40;;;1.70;;
3341;SDS011;1684;50.748;6.154;2022-10-16T02:51:43;4.00;;;2.20;;
3341;SDS011;1684;50.748;6.154;2022-10-16T02:54:12;2.60;;;1.70;;
3341;SDS011;1684;50.748;6.154;2022-10-16T02:56:40;5.27;;;1.83;;
3341;SDS011;1684;50.748;6.154;2022-10-16T02:59:08;4.03;;;1.83;;
3341;SDS011;1684;50.748;6.154;2022-10-16T03:01:36;3.10;;;1.97;;
3341;SDS011;1684;50.748;6.154;2022-10-16T03:04:04;4.93;;;1.83;;
3341;SDS011;1684;50.748;6.154;2022-10-16T03:06:33;3.40;;;1.90;;
3341;SDS011;1684;50.748;6.154;2022-10-16T03:09:03;2.73;;;1.97;;
3341;SDS011;1684;50.748;6.154;2022-10-16T03:11:31;3.47;;;2.10;;
3341;SDS011;1684;50.748;6.154;2022-10-16T03:14:00;3.37;;;2.00;;
3341;SDS011;1684;50.748;6.154;2022-10-16T03:16:28;4.53;;;2.27;;
3341;SDS011;1684;50.748;6.154;2022-10-16T03:18:56;3.23;;;1.83;;
3341;SDS011;1684;50.748;6.154;2022-10-16T03:21:24;6.20;;;2.10;;
3341;SDS011;1684;50.748;6.154;2022-10-16T03:23:53;3.90;;;2.30;;
3341;SDS011;1684;50.748;6.154;2022-10-16T03:26:22;3.43;;;2.20;;
3341;SDS011;1684;50.748;6.154;2022-10-16T03:28:50;4.00;;;2.37;;
3341;SDS011;1684;50.748;6.154;2022-10-16T03:31:18;4.40;;;2.10;;
3341;SDS011;1684;50.748;6.154;2022-10-16T03:33:47;3.43;;;2.43;;
3341;SDS011;1684;50.748;6.154;2022-10-16T03:36:15;4.23;;;2.20;;
3341;SDS011;1684;50.748;6.154;2022-10-16T03:38:43;3.50;;;2.40;;
3341;SDS011;1684;50.748;6.154;2022-10-16T03:41:12;4.83;;;2.67;;
3341;SDS011;1684;50.748;6.154;2022-10-16T03:43:41;3.00;;;2.20;;
3341;SDS011;1684;50.748;6.154;2022-10-16T03:46:09;3.00;;;2.40;;
3341;SDS011;1684;50.748;6.154;2022-10-16T03:48:38;2.93;;;2.10;;
3341;SDS011;1684;50.748;6.154;2022-10-16T03:51:06;12.77;;;2.50;;
3341;SDS011;1684;50.748;6.154;2022-10-16T03:53:34;4.10;;;2.30;;
3341;SDS011;1684;50.748;6.154;2022-10-16T03:56:03;3.90;;;2.60;;
3341;SDS011;1684;50.748;6.154;2022-10-16T03:58:31;3.17;;;2.57;;
3341;SDS011;1684;50.748;6.154;2022-10-16T04:01:01;4.40;;;3.00;;
3341;SDS011;1684;50.748;6.154;2022-10-16T04:03:29;3.10;;;2.00;;
3341;SDS011;1684;50.748;6.154;2022-10-16T04:05:57;3.97;;;2.53;;
3341;SDS011;1684;50.748;6.154;2022-10-16T04:08:25;5.53;;;3.17;;
3341;SDS011;1684;50.748;6.154;2022-10-16T04:10:53;3.00;;;2.00;;
3341;SDS011;1684;50.748;6.154;2022-10-16T04:13:22;6.07;;;2.77;;
3341;SDS011;1684;50.748;6.154;2022-10-16T04:15:50;2.80;;;1.83;;
3341;SDS011;1684;50.748;6.154;2022-10-16T04:18:19;4.30;;;2.50;;
3341;SDS011;1684;50.748;6.154;2022-10-16T04:20:48;4.90;;;2.60;;
3341;SDS011;1684;50.748;6.154;2022-10-16T04:23:16;3.93;;;2.33;;
3341;SDS011;1684;50.748;6.154;2022-10-16T04:25:44;3.93;;;2.63;;
3341;SDS011;1684;50.748;6.154;2022-10-16T04:28:12;4.00;;;2.73;;
3341;SDS011;1684;50.748;6.154;2022-10-16T04:30:40;3.80;;;2.37;;
3341;SDS011;1684;50.748;6.154;2022-10-16T04:33:09;6.37;;;2.03;;
3341;SDS011;1684;50.748;6.154;2022-10-16T04:35:38;4.43;;;2.73;;
3341;SDS011;1684;50.748;6.154;2022-10-16T04:38:06;3.63;;;2.63;;
3341;SDS011;1684;50.748;6.154;2022-10-16T04:40:35;4.70;;;2.63;;
3341;SDS011;1684;50.748;6.154;2022-10-16T04:43:03;7.03;;;2.87;;
3341;SDS011;1684;50.748;6.154;2022-10-16T04:45:32;7.73;;;2.57;;
3341;SDS011;1684;50.748;6.154;2022-10-16T04:48:00;3.03;;;2.23;;
3341;SDS011;1684;50.748;6.154;2022-10-16T04:50:28;6.17;;;2.50;;
3341;SDS011;1684;50.748;6.154;2022-10-16T04:52:58;3.50;;;2.60;;
3341;SDS011;1684;50.748;6.154;2022-10-16T04:55:26;4.20;;;2.53;;
3341;SDS011;1684;50.748;6.154;2022-10-16T04:57:54;4.63;;;2.80;;
3341;SDS011;1684;50.748;6.154;2022-10-16T05:00:22;4.27;;;3.10;;
3341;SDS011;1684;50.748;6.154;2022-10-16T05:02:51;4.03;;;2.73;;
3341;SDS011;1684;50.748;6.154;2022-10-16T05:05:19;4.23;;;2.60;;
3341;SDS011;1684;50.748;6.154;2022-10-16T05:07:47;3.37;;;2.47;;
3341;SDS011;1684;50.748;6.154;2022-10-16T05:10:17;3.50;;;2.50;;
3341;SDS011;1684;50.748;6.154;2022-10-16T05:12:46;3.83;;;1.93;;
3341;SDS011;1684;50.748;6.154;2022-10-16T05:15:14;5.90;;;3.20;;
3341;SDS011;1684;50.748;6.154;2022-10-16T05:17:43;3.57;;;2.70;;
3341;SDS011;1684;50.748;6.154;2022-10-16T05:20:11;5.20;;;2.90;;
3341;SDS011;1684;50.748;6.154;2022-10-16T05:22:40;4.10;;;3.00;;
3341;SDS011;1684;50.748;6.154;2022-10-16T05:25:08;4.77;;;2.63;;
3341;SDS011;1684;50.748;6.154;2022-10-16T05:27:37;3.73;;;2.60;;
3341;SDS011;1684;50.748;6.154;2022-10-16T05:30:06;8.40;;;2.90;;
3341;SDS011;1684;50.748;6.154;2022-10-16T05:32:37;4.00;;;2.67;;
3341;SDS011;1684;50.748;6.154;2022-10-16T05:35:06;4.70;;;3.27;;
3341;SDS011;1684;50.748;6.154;2022-10-16T05:37:37;4.43;;;2.63;;
3341;SDS011;1684;50.748;6.154;2022-10-16T05:40:09;3.93;;;2.93;;
3341;SDS011;1684;50.748;6.154;2022-10-16T05:42:40;4.50;;;3.00;;
3341;SDS011;1684;50.748;6.154;2022-10-16T05:45:09;4.30;;;2.50;;
3341;SDS011;1684;50.748;6.154;2022-10-16T05:47:37;3.53;;;2.40;;
3341;SDS011;1684;50.748;6.154;2022-10-16T05:50:06;4.00;;;2.50;;
3341;SDS011;1684;50.748;6.154;2022-10-16T05:52:34;4.73;;;3.03;;
3341;SDS011;1684;50.748;6.154;2022-10-16T05:55:03;5.77;;;2.83;;
3341;SDS011;1684;50.748;6.154;2022-10-16T05:57:31;5.43;;;2.30;;
3341;SDS011;1684;50.748;6.154;2022-10-16T06:00:01;4.50;;;2.50;;
3341;SDS011;1684;50.748;6.154;2022-10-16T06:02:29;3.60;;;2.80;;
3341;SDS011;1684;50.748;6.154;2022-10-16T06:04:57;4.07;;;2.80;;
3341;SDS011;1684;50.748;6.154;2022-10-16T06:07:25;6.10;;;3.10;;
3341;SDS011;1684;50.748;6.154;2022-10-16T06:09:54;4.77;;;2.73;;
3341;SDS011;1684;50.748;6.154;2022-10-16T06:12:22;5.30;;;4.37;;
3341;SDS011;1684;50.748;6.154;2022-10-16T06:14:50;4.47;;;3.03;;
3341;SDS011;1684;50.748;6.154;2022-10-16T06:17:20;7.53;;;2.83;;
3341;SDS011;1684;50.748;6.154;2022-10-16T06:19:48;5.47;;;3.60;;
3341;SDS011;1684;50.748;6.154;2022-10-16T06:22:19;4.27;;;3.17;;
3341;SDS011;1684;50.748;6.154;2022-10-16T06:24:47;6.10;;;3.37;;
3341;SDS011;1684;50.748;6.154;2022-10-16T06:27:15;4.30;;;2.87;;
3341;SDS011;1684;50.748;6.154;2022-10-16T06:29:44;4.67;;;3.23;;
3341;SDS011;1684;50.748;6.154;2022-10-16T06:32:12;4.33;;;2.93;;
3341;SDS011;1684;50.748;6.154;2022-10-16T06:34:42;7.33;;;3.00;;
3341;SDS011;1684;50.748;6.154;2022-10-16T06:37:10;3.97;;;2.97;;
3341;SDS011;1684;50.748;6.154;2022-10-16T06:39:39;4.80;;;3.27;;
3341;SDS011;1684;50.748;6.154;2022-10-16T06:42:07;4.50;;;2.63;;
3341;SDS011;1684;50.748;6.154;2022-10-16T06:44:35;5.20;;;3.27;;
3341;SDS011;1684;50.748;6.154;2022-10-16T06:47:03;4.80;;;3.43;;
3341;SDS011;1684;50.748;6.154;2022-10-16T06:49:31;4.80;;;2.63;;
3341;SDS011;1684;50.748;6.154;2022-10-16T06:52:01;4.80;;;3.17;;
3341;SDS011;1684;50.748;6.154;2022-10-16T06:54:29;8.73;;;3.73;;
3341;SDS011;1684;50.748;6.154;2022-10-16T06:57:07;9.03;;;3.30;;
3341;SDS011;1684;50.748;6.154;2022-10-16T06:59:35;5.57;;;3.40;;
3341;SDS011;1684;50.748;6.154;2022-10-16T07:02:04;5.37;;;3.40;;
3341;SDS011;1684;50.748;6.154;2022-10-16T07:04:33;7.13;;;3.70;;
3341;SDS011;1684;50.748;6.154;2022-10-16T07:07:02;5.03;;;3.27;;
3341;SDS011;1684;50.748;6.154;2022-10-16T07:09:34;5.50;;;3.40;;
3341;SDS011;1684;50.748;6.154;2022-10-16T07:12:03;5.20;;;3.53;;
3341;SDS011;1684;50.748;6.154;2022-10-16T07:14:31;5.80;;;3.77;;
3341;SDS011;1684;50.748;6.154;2022-10-16T07:16:59;11.33;;;4.20;;
3341;SDS011;1684;50.748;6.154;2022-10-16T07:19:27;5.40;;;3.73;;
3341;SDS011;1684;50.748;6.154;2022-10-16T07:21:59;6.13;;;3.50;;
3341;SDS011;1684;50.748;6.154;2022-10-16T07:24:30;7.03;;;3.80;;
3341;SDS011;1684;50.748;6.154;2022-10-16T07:26:58;5.87;;;3.40;;
3341;SDS011;1684;50.748;6.154;2022-10-16T07:29:26;5.60;;;3.27;;
3341;SDS011;1684;50.748;6.154;2022-10-16T07:31:55;8.73;;;3.37;;
3341;SDS011;1684;50.748;6.154;2022-10-16T07:34:23;5.30;;;4.10;;
3341;SDS011;1684;50.748;6.154;2022-10-16T07:36:52;5.03;;;3.40;;
3341;SDS011;1684;50.748;6.154;2022-10-16T07:39:21;6.77;;;3.50;;
3341;SDS011;1684;50.748;6.154;2022-10-16T07:41:50;6.33;;;3.70;;
3341;SDS011;1684;50.748;6.154;2022-10-16T07:44:18;5.97;;;4.63;;
3341;SDS011;1684;50.748;6.154;2022-10-16T07:46:46;5.60;;;3.23;;
3341;SDS011;1684;50.748;6.154;2022-10-16T07:49:15;5.10;;;2.80;;
3341;SDS011;1684;50.748;6.154;2022-10-16T07:51:43;5.77;;;3.83;;
3341;SDS011;1684;50.748;6.154;2022-10-16T07:54:11;5.43;;;3.33;;
3341;SDS011;1684;50.748;6.154;2022-10-16T07:56:39;5.57;;;3.60;;
3341;SDS011;1684;50.748;6.154;2022-10-16T07:59:10;7.10;;;3.67;;
3341;SDS011;1684;50.748;6.154;2022-10-16T08:01:39;8.83;;;3.07;;
3341;SDS011;1684;50.748;6.154;2022-10-16T08:04:08;5.67;;;3.03;;
3341;SDS011;1684;50.748;6.154;2022-10-16T08:06:37;3.60;;;2.63;;
3341;SDS011;1684;50.748;6.154;2022-10-16T08:09:06;4.33;;;2.90;;
3341;SDS011;1684;50.748;6.154;2022-10-16T08:11:34;5.50;;;3.73;;
3341;SDS011;1684;50.748;6.154;2022-10-16T08:14:02;4.10;;;3.17;;
3341;SDS011;1684;50.748;6.154;2022-10-16T08:16:33;5.80;;;2.97;;
3341;SDS011;1684;50.748;6.154;2022-10-16T08:19:01;5.83;;;3.90;;
3341;SDS011;1684;50.748;6.154;2022-10-16T08:21:29;4.67;;;3.10;;
3341;SDS011;1684;50.748;6.154;2022-10-16T08:23:57;6.40;;;3.60;;
3341;SDS011;1684;50.748;6.154;2022-10-16T08:26:26;7.03;;;3.30;;
3341;SDS011;1684;50.748;6.154;2022-10-16T08:28:55;8.40;;;3.80;;
3341;SDS011;1684;50.748;6.154;2022-10-16T08:31:23;4.43;;;3.17;;
3341;SDS011;1684;50.748;6.154;2022-10-16T08:33:53;4.10;;;2.30;;
3341;SDS011;1684;50.748;6.154;2022-10-16T08:36:22;6.03;;;2.60;;
3341;SDS011;1684;50.748;6.154;2022-10-16T08:38:50;3.50;;;2.60;;
3341;SDS011;1684;50.748;6.154;2022-10-16T08:44:11;3.20;;;2.20;;
3341;SDS011;1684;50.748;6.154;2022-10-16T08:46:47;3.37;;;1.80;;
3341;SDS011;1684;50.748;6.154;2022-10-16T08:49:20;3.57;;;1.67;;
3341;SDS011;1684;50.748;6.154;2022-10-16T08:51:50;3.03;;;1.30;;
3341;SDS011;1684;50.748;6.154;2022-10-16T08:54:21;2.97;;;1.30;;
3341;SDS011;1684;50.748;6.154;2022-10-16T08:56:51;3.60;;;1.50;;
3341;SDS011;1684;50.748;6.154;2022-10-16T08:59:21;2.47;;;1.20;;
3341;SDS011;1684;50.748;6.154;2022-10-16T09:01:50;4.40;;;1.03;;
3341;SDS011;1684;50.748;6.154;2022-10-16T09:07:24;2.50;;;1.40;;
3341;SDS011;1684;50.748;6.154;2022-10-16T09:10:02;4.30;;;1.70;;
3341;SDS011;1684;50.748;6.154;2022-10-16T09:12:40;2.63;;;1.20;;
3341;SDS011;1684;50.748;6.154;2022-10-16T09:15:13;4.03;;;1.20;;
3341;SDS011;1684;50.748;6.154;2022-10-16T09:17:48;3.03;;;1.00;;
3341;SDS011;1684;50.748;6.154;2022-10-16T09:20:22;1.97;;;0.97;;
3341;SDS011;1684;50.748;6.154;2022-10-16T09:22:55;3.20;;;1.20;;
3341;SDS011;1684;50.748;6.154;2022-10-16T09:25:28;2.70;;;1.50;;
3341;SDS011;1684;50.748;6.154;2022-10-16T09:27:56;2.30;;;1.10;;
3341;SDS011;1684;50.748;6.154;2022-10-16T09:30:26;5.43;;;1.27;;
3341;SDS011;1684;50.748;6.154;2022-10-16T09:32:55;5.50;;;1.27;;
3341;SDS011;1684;50.748;6.154;2022-10-16T09:35:27;1.90;;;0.87;;
3341;SDS011;1684;50.748;6.154;2022-10-16T09:38:00;3.50;;;1.40;;
3341;SDS011;1684;50.748;6.154;2022-10-16T09:40:30;4.53;;;1.20;;
3341;SDS011;1684;50.748;6.154;2022-10-16T09:43:01;3.07;;;0.90;;
3341;SDS011;1684;50.748;6.154;2022-10-16T09:45:30;2.37;;;1.10;;
3341;SDS011;1684;50.748;6.154;2022-10-16T09:48:00;2.67;;;1.10;;
3341;SDS011;1684;50.748;6.154;2022-10-16T09:50:29;3.07;;;1.13;;
3341;SDS011;1684;50.748;6.154;2022-10-16T09:53:08;1.73;;;0.77;;
3341;SDS011;1684;50.748;6.154;2022-10-16T09:55:47;2.70;;;1.17;;
3341;SDS011;1684;50.748;6.154;2022-10-16T09:58:16;2.00;;;0.93;;
3341;SDS011;1684;50.748;6.154;2022-10-16T10:00:48;5.53;;;1.07;;
3341;SDS011;1684;50.748;6.154;2022-10-16T10:03:23;4.03;;;0.90;;
3341;SDS011;1684;50.748;6.154;2022-10-16T10:05:58;2.30;;;1.20;;
3341;SDS011;1684;50.748;6.154;2022-10-16T10:08:28;2.20;;;1.10;;
3341;SDS011;1684;50.748;6.154;2022-10-16T10:10:57;3.70;;;1.10;;
3341;SDS011;1684;50.748;6.154;2022-10-16T10:13:25;4.47;;;1.10;;
3341;SDS011;1684;50.748;6.154;2022-10-16T10:15:54;2.13;;;1.03;;
3341;SDS011;1684;50.748;6.154;2022-10-16T10:18:23;3.90;;;1.30;;
3341;SDS011;1684;50.748;6.154;2022-10-16T10:20:59;3.67;;;1.10;;
3341;SDS011;1684;50.748;6.154;2022-10-16T10:23:29;2.60;;;0.90;;
3341;SDS011;1684;50.748;6.154;2022-10-16T10:25:59;2.67;;;1.00;;
3341;SDS011;1684;50.748;6.154;2022-10-16T10:28:38;2.90;;;0.80;;
3341;SDS011;1684;50.748;6.154;2022-10-16T10:31:12;4.77;;;1.00;;
3341;SDS011;1684;50.748;6.154;2022-10-16T10:33:43;6.60;;;1.80;;
3341;SDS011;1684;50.748;6.154;2022-10-16T10:36:16;4.37;;;1.03;;
3341;SDS011;1684;50.748;6.154;2022-10-16T10:38:50;2.80;;;0.80;;
3341;SDS011;1684;50.748;6.154;2022-10-16T10:44:03;2.37;;;0.90;;
3341;SDS011;1684;50.748;6.154;2022-10-16T10:46:36;2.00;;;0.87;;
3341;SDS011;1684;50.748;6.154;2022-10-16T10:49:14;2.20;;;0.93;;
3341;SDS011;1684;50.748;6.154;2022-10-16T10:51:45;3.50;;;0.97;;
3341;SDS011;1684;50.748;6.154;2022-10-16T10:54:19;1.90;;;0.80;;
3341;SDS011;1684;50.748;6.154;2022-10-16T10:56:51;1.90;;;1.00;;
3341;SDS011;1684;50.748;6.154;2022-10-16T10:59:28;2.17;;;0.97;;
3341;SDS011;1684;50.748;6.154;2022-10-16T11:02:01;2.90;;;0.90;;
3341;SDS011;1684;50.748;6.154;2022-10-16T11:07:21;4.93;;;0.87;;
3341;SDS011;1684;50.748;6.154;2022-10-16T11:09:55;3.50;;;0.87;;
3341;SDS011;1684;50.748;6.154;2022-10-16T11:12:25;3.30;;;1.00;;
3341;SDS011;1684;50.748;6.154;2022-10-16T11:14:56;2.17;;;0.80;;
3341;SDS011;1684;50.748;6.154;2022-10-16T11:17:26;5.50;;;0.87;;
3341;SDS011;1684;50.748;6.154;2022-10-16T11:19:57;3.40;;;0.83;;
3341;SDS011;1684;50.748;6.154;2022-10-16T11:22:27;3.03;;;0.90;;
3341;SDS011;1684;50.748;6.154;2022-10-16T11:25:00;3.27;;;1.13;;
3341;SDS011;1684;50.748;6.154;2022-10-16T11:27:34;2.30;;;0.90;;
3341;SDS011;1684;50.748;6.154;2022-10-16T11:30:04;4.60;;;1.10;;
3341;SDS011;1684;50.748;6.154;2022-10-16T11:32:35;2.93;;;0.90;;
3341;SDS011;1684;50.748;6.154;2022-10-16T11:35:11;3.13;;;1.20;;
3341;SDS011;1684;50.748;6.154;2022-10-16T11:37:43;2.53;;;0.93;;
3341;SDS011;1684;50.748;6.154;2022-10-16T11:40:19;4.13;;;0.80;;
3341;SDS011;1684;50.748;6.154;2022-10-16T11:42:50;2.53;;;0.87;;
3341;SDS011;1684;50.748;6.154;2022-10-16T11:45:24;4.60;;;1.17;;
3341;SDS011;1684;50.748;6.154;2022-10-16T11:47:57;3.33;;;0.90;;
3341;SDS011;1684;50.748;6.154;2022-10-16T11:50:29;2.33;;;0.83;;
3341;SDS011;1684;50.748;6.154;2022-10-16T11:53:00;2.53;;;1.00;;
3341;SDS011;1684;50.748;6.154;2022-10-16T11:55:31;2.00;;;0.90;;
3341;SDS011;1684;50.748;6.154;2022-10-16T11:58:01;5.07;;;1.53;;
3341;SDS011;1684;50.748;6.154;2022-10-16T12:00:34;5.53;;;0.80;;
3341;SDS011;1684;50.748;6.154;2022-10-16T12:03:08;3.20;;;1.10;;
3341;SDS011;1684;50.748;6.154;2022-10-16T12:05:51;5.00;;;0.87;;
3341;SDS011;1684;50.748;6.154;2022-10-16T12:08:20;3.10;;;0.80;;
3341;SDS011;1684;50.748;6.154;2022-10-16T12:10:50;3.03;;;0.90;;
3341;SDS011;1684;50.748;6.154;2022-10-16T12:13:28;1.93;;;0.73;;
3341;SDS011;1684;50.748;6.154;2022-10-16T12:16:04;2.10;;;1.00;;
3341;SDS011;1684;50.748;6.154;2022-10-16T12:18:32;2.80;;;0.80;;
3341;SDS011;1684;50.748;6.154;2022-10-16T12:21:01;3.70;;;1.33;;
3341;SDS011;1684;50.748;6.154;2022-10-16T12:23:32;1.70;;;0.70;;
3341;SDS011;1684;50.748;6.154;2022-10-16T12:26:02;2.90;;;1.23;;
3341;SDS011;1684;50.748;6.154;2022-10-16T12:28:31;5.50;;;0.90;;
3341;SDS011;1684;50.748;6.154;2022-10-16T12:31:02;1.80;;;0.70;;
3341;SDS011;1684;50.748;6.154;2022-10-16T12:33:31;3.20;;;1.63;;
3341;SDS011;1684;50.748;6.154;2022-10-16T12:36:01;1.93;;;0.80;;
3341;SDS011;1684;50.748;6.154;2022-10-16T12:38:30;1.70;;;0.60;;
3341;SDS011;1684;50.748;6.154;2022-10-16T12:41:01;3.30;;;0.80;;
3341;SDS011;1684;50.748;6.154;2022-10-16T12:43:38;4.87;;;1.23;;
3341;SDS011;1684;50.748;6.154;2022-10-16T12:46:22;2.10;;;0.93;;
3341;SDS011;1684;50.748;6.154;2022-10-16T12:48:50;2.43;;;0.90;;
3341;SDS011;1684;50.748;6.154;2022-10-16T12:51:34;2.00;;;0.80;;
3341;SDS011;1684;50.748;6.154;2022-10-16T12:54:03;3.67;;;0.97;;
3341;SDS011;1684;50.748;6.154;2022-10-16T12:56:35;7.13;;;1.73;;
3341;SDS011;1684;50.748;6.154;2022-10-16T12:59:11;2.60;;;1.00;;
3341;SDS011;1684;50.748;6.154;2022-10-16T13:01:44;2.83;;;1.10;;
3341;SDS011;1684;50.748;6.154;2022-10-16T13:04:17;2.53;;;1.17;;
3341;SDS011;1684;50.748;6.154;2022-10-16T13:06:51;4.23;;;0.93;;
3341;SDS011;1684;50.748;6.154;2022-10-16T13:09:27;2.17;;;0.80;;
3341;SDS011;1684;50.748;6.154;2022-10-16T13:14:49;6.47;;;1.37;;
3341;SDS011;1684;50.748;6.154;2022-10-16T13:17:22;3.43;;;1.13;;
3341;SDS011;1684;50.748;6.154;2022-10-16T13:19:56;4.10;;;1.27;;
3341;SDS011;1684;50.748;6.154;2022-10-16T13:22:27;2.50;;;1.07;;
3341;SDS011;1684;50.748;6.154;2022-10-16T13:25:01;2.73;;;1.23;;
3341;SDS011;1684;50.748;6.154;2022-10-16T13:27:40;2.43;;;1.00;;
3341;SDS011;1684;50.748;6.154;2022-10-16T13:30:12;3.07;;;0.97;;
3341;SDS011;1684;50.748;6.154;2022-10-16T13:32:44;5.30;;;1.03;;
3341;SDS011;1684;50.748;6.154;2022-10-16T13:35:20;2.43;;;1.10;;
3341;SDS011;1684;50.748;6.154;2022-10-16T13:37:48;4.67;;;1.20;;
3341;SDS011;1684;50.748;6.154;2022-10-16T13:40:19;2.60;;;0.90;;
3341;SDS011;1684;50.748;6.154;2022-10-16T13:42:47;3.30;;;1.53;;
3341;SDS011;1684;50.748;6.154;2022-10-16T13:45:18;2.10;;;0.90;;
3341;SDS011;1684;50.748;6.154;2022-10-16T13:47:46;2.10;;;0.97;;
3341;SDS011;1684;50.748;6.154;2022-10-16T13:50:16;5.20;;;0.93;;
3341;SDS011;1684;50.748;6.154;2022-10-16T13:52:44;1.70;;;0.77;;
3341;SDS011;1684;50.748;6.154;2022-10-16T13:55:13;2.03;;;0.83;;
3341;SDS011;1684;50.748;6.154;2022-10-16T13:57:41;2.17;;;0.80;;
3341;SDS011;1684;50.748;6.154;2022-10-16T14:00:22;2.43;;;0.83;;
3341;SDS011;1684;50.748;6.154;2022-10-16T14:02:51;2.70;;;0.87;;
3341;SDS011;1684;50.748;6.154;2022-10-16T14:05:22;2.20;;;1.00;;
3341;SDS011;1684;50.748;6.154;2022-10-16T14:07:50;2.27;;;0.90;;
3341;SDS011;1684;50.748;6.154;2022-10-16T14:10:20;2.83;;;1.00;;
3341;SDS011;1684;50.748;6.154;2022-10-16T14:12:59;1.73;;;0.67;;
3341;SDS011;1684;50.748;6.154;2022-10-16T14:15:30;2.07;;;0.87;;
3341;SDS011;1684;50.748;6.154;2022-10-16T14:17:59;1.83;;;0.70;;
3341;SDS011;1684;50.748;6.154;2022-10-16T14:20:28;2.10;;;0.73;;
3341;SDS011;1684;50.748;6.154;2022-10-16T14:23:00;3.20;;;0.67;;
3341;SDS011;1684;50.748;6.154;2022-10-16T14:25:29;3.10;;;0.80;;
3341;SDS011;1684;50.748;6.154;2022-10-16T14:27:59;1.87;;;0.93;;
3341;SDS011;1684;50.748;6.154;2022-10-16T14:30:34;2.00;;;0.87;;
3341;SDS011;1684;50.748;6.154;2022-10-16T14:33:03;1.90;;;0.80;;
3341;SDS011;1684;50.748;6.154;2022-10-16T14:35:32;4.13;;;0.77;;
3341;SDS011;1684;50.748;6.154;2022-10-16T14:38:01;2.20;;;1.20;;
3341;SDS011;1684;50.748;6.154;2022-10-16T14:40:30;2.40;;;1.10;;
3341;SDS011;1684;50.748;6.154;2022-10-16T14:42:59;2.33;;;0.90;;
3341;SDS011;1684;50.748;6.154;2022-10-16T14:45:29;2.77;;;1.10;;
3341;SDS011;1684;50.748;6.154;2022-10-16T14:48:00;2.57;;;0.83;;
3341;SDS011;1684;50.748;6.154;2022-10-16T14:50:29;2.00;;;0.83;;
3341;SDS011;1684;50.748;6.154;2022-10-16T14:52:58;3.13;;;1.00;;
3341;SDS011;1684;50.748;6.154;2022-10-16T14:55:26;2.47;;;0.93;;
3341;SDS011;1684;50.748;6.154;2022-10-16T14:57:54;2.10;;;0.90;;
3341;SDS011;1684;50.748;6.154;2022-10-16T15:00:26;2.10;;;1.00;;
3341;SDS011;1684;50.748;6.154;2022-10-16T15:02:54;2.30;;;1.27;;
3341;SDS011;1684;50.748;6.154;2022-10-16T15:05:25;2.67;;;0.90;;
3341;SDS011;1684;50.748;6.154;2022-10-16T15:07:54;1.60;;;0.67;;
3341;SDS011;1684;50.748;6.154;2022-10-16T15:10:23;2.10;;;1.00;;
3341;SDS011;1684;50.748;6.154;2022-10-16T15:12:51;1.80;;;0.80;;
3341;SDS011;1684;50.748;6.154;2022-10-16T15:15:33;3.20;;;1.27;;
3341;SDS011;1684;50.748;6.154;2022-10-16T15:18:02;1.80;;;0.80;;
3341;SDS011;1684;50.748;6.154;2022-10-16T15:20:32;2.13;;;0.90;;
3341;SDS011;1684;50.748;6.154;2022-10-16T15:23:01;3.80;;;0.90;;
3341;SDS011;1684;50.748;6.154;2022-10-16T15:25:31;3.97;;;1.17;;
3341;SDS011;1684;50.748;6.154;2022-10-16T15:28:00;2.10;;;0.80;;
3341;SDS011;1684;50.748;6.154;2022-10-16T15:30:29;1.87;;;0.80;;
3341;SDS011;1684;50.748;6.154;2022-10-16T15:32:57;6.90;;;1.10;;
3341;SDS011;1684;50.748;6.154;2022-10-16T15:35:25;2.37;;;0.93;;
3341;SDS011;1684;50.748;6.154;2022-10-16T15:37:55;2.20;;;0.80;;
3341;SDS011;1684;50.748;6.154;2022-10-16T15:40:24;2.87;;;0.80;;
3341;SDS011;1684;50.748;6.154;2022-10-16T15:42:52;2.67;;;0.77;;
3341;SDS011;1684;50.748;6.154;2022-10-16T15:45:20;1.83;;;0.90;;
3341;SDS011;1684;50.748;6.154;2022-10-16T15:47:49;1.73;;;0.80;;